Terminal Aerodrome Forecast
Issued by NWS

Home | Current Version | Previous Version | Text Only | Print | Product List | Glossary On
Versions: 1 2 3 4 5 6 7 8 9 10 11 12 13 14 15 16
000
FTUS42 KGSP 272320
TAFGMU
TAF
KGMU 272320Z 2800/2824 23005KT P6SM FEW060 SCT250
      TEMPO 2800/2804 23010KT
     FM281500 24010KT P6SM FEW250
     FM281900 24012G20KT P6SM FEW060 SCT250=

USA.gov is the U.S. government's official web portal to all federal, state and local government web resources and services.